Time,TemperatureF,DewpointF,PressureIn,WindDirection,WindDirectionDegrees,WindSpeedMPH,WindSpeedGustMPH,Humidity,HourlyPrecipIn,Conditions,Clouds,dailyrainin,SoftwareType,DateUTC
2013-01-16 00:03:00,34.9,32.0,30.93,WSW,250,1.0,8.0,89,0.00,,,0.00,meteohub,2013-01-16 08:03:00,
2013-01-16 00:08:00,35.1,32.4,30.93,WNW,288,0.0,6.0,90,0.00,,,0.00,meteohub,2013-01-16 08:08:00,
2013-01-16 00:14:00,35.1,32.4,30.93,WSW,242,1.0,5.0,90,0.00,,,0.00,meteohub,2013-01-16 08:14:00,
2013-01-16 00:19:00,34.9,32.2,30.93,SE,146,1.0,6.0,90,0.00,,,0.00,meteohub,2013-01-16 08:19:00,
2013-01-16 00:24:00,34.5,31.8,30.93,SSE,159,0.0,6.0,90,0.00,,,0.00,meteohub,2013-01-16 08:24:00,
2013-01-16 00:29:00,34.3,31.6,30.93,South,176,0.0,6.0,90,0.00,,,0.00,meteohub,2013-01-16 08:29:00,
2013-01-16 00:34:00,34.7,31.8,30.93,WSW,244,1.0,4.0,89,0.00,,,0.00,meteohub,2013-01-16 08:34:00,
2013-01-16 00:39:00,34.9,32.0,30.93,NW,317,0.0,6.0,89,0.00,,,0.00,meteohub,2013-01-16 08:39:00,
2013-01-16 00:44:00,34.9,32.2,30.93,ESE,118,2.0,6.0,90,0.00,,,0.00,meteohub,2013-01-16 08:44:00,
2013-01-16 00:49:00,34.3,31.6,30.93,SSE,148,0.0,6.0,90,0.00,,,0.00,meteohub,2013-01-16 08:49:00,
2013-01-16 00:54:00,34.0,31.3,30.93,ESE,123,0.0,3.0,90,0.00,,,0.00,meteohub,2013-01-16 08:54:00,
2013-01-16 00:59:00,34.0,31.3,30.93,WSW,255,1.0,3.0,90,0.00,,,0.00,meteohub,2013-01-16 08:59:00,
2013-01-16 01:04:00,34.2,31.5,30.92,West,273,0.0,3.0,90,0.00,,,0.00,meteohub,2013-01-16 09:04:00,
2013-01-16 01:09:00,34.2,31.3,30.92,NNE,24,0.0,3.0,89,0.00,,,0.00,meteohub,2013-01-16 09:09:00,
2013-01-16 01:15:00,34.2,31.5,30.92,WSW,238,2.0,3.0,90,0.00,,,0.00,meteohub,2013-01-16 09:15:00,
2013-01-16 01:20:00,34.0,31.3,30.92,West,266,0.0,3.0,90,0.00,,,0.00,meteohub,2013-01-16 09:20:00,
2013-01-16 01:25:00,34.0,31.3,30.92,NNW,344,1.0,3.0,90,0.00,,,0.00,meteohub,2013-01-16 09:25:00,
2013-01-16 01:30:00,34.0,31.3,30.92,WSW,252,1.0,3.0,90,0.00,,,0.00,meteohub,2013-01-16 09:30:00,
2013-01-16 01:35:00,33.8,31.1,30.92,WNW,296,3.0,3.0,90,0.00,,,0.00,meteohub,2013-01-16 09:35:00,
2013-01-16 01:40:00,34.0,31.1,30.92,WSW,248,1.0,5.0,89,0.00,,,0.00,meteohub,2013-01-16 09:40:00,
2013-01-16 01:45:00,34.2,31.3,30.92,SSE,147,1.0,5.0,89,0.00,,,0.00,meteohub,2013-01-16 09:45:00,
2013-01-16 01:50:00,34.2,31.5,30.92,ESE,111,3.0,5.0,90,0.00,,,0.00,meteohub,2013-01-16 09:50:00,
2013-01-16 01:55:00,33.8,31.1,30.92,ESE,121,2.0,3.0,90,0.00,,,0.00,meteohub,2013-01-16 09:55:00,
2013-01-16 02:01:00,33.6,30.9,30.92,NNW,342,0.0,3.0,90,0.00,,,0.00,meteohub,2013-01-16 10:01:00,
2013-01-16 02:06:00,33.6,30.9,30.92,SW,221,1.0,3.0,90,0.00,,,0.00,meteohub,2013-01-16 10:06:00,
2013-01-16 02:11:00,33.6,30.9,30.92,SSW,205,0.0,2.0,90,0.00,,,0.00,meteohub,2013-01-16 10:11:00,
2013-01-16 02:16:00,33.6,30.9,30.92,ENE,73,0.0,3.0,90,0.00,,,0.00,meteohub,2013-01-16 10:16:00,
2013-01-16 02:21:00,33.4,30.7,30.92,East,84,1.0,4.0,90,0.00,,,0.00,meteohub,2013-01-16 10:21:00,
2013-01-16 02:26:00,33.4,30.7,30.93,NW,323,4.0,4.0,90,0.00,,,0.00,meteohub,2013-01-16 10:26:00,
2013-01-16 02:31:00,34.0,30.7,30.93,West,273,1.0,7.0,88,0.00,,,0.00,meteohub,2013-01-16 10:31:00,
2013-01-16 02:36:00,34.2,30.9,30.93,West,279,2.0,7.0,88,0.00,,,0.00,meteohub,2013-01-16 10:36:00,
2013-01-16 02:41:00,34.2,31.3,30.93,NW,319,4.0,7.0,89,0.00,,,0.00,meteohub,2013-01-16 10:41:00,
2013-01-16 02:46:00,34.2,31.3,30.93,WNW,298,3.0,6.0,89,0.00,,,0.00,meteohub,2013-01-16 10:46:00,
2013-01-16 02:51:00,34.2,31.5,30.93,WNW,294,1.0,6.0,90,0.00,,,0.00,meteohub,2013-01-16 10:51:00,
2013-01-16 02:57:00,34.0,31.3,30.93,SE,132,0.0,6.0,90,0.00,,,0.00,meteohub,2013-01-16 10:57:00,
2013-01-16 03:02:00,33.6,30.9,30.93,West,260,1.0,6.0,90,0.00,,,0.00,meteohub,2013-01-16 11:02:00,
2013-01-16 03:07:00,33.4,30.7,30.92,North,5,5.0,5.0,90,0.00,,,0.00,meteohub,2013-01-16 11:07:00,
2013-01-16 03:12:00,33.8,30.6,30.92,West,263,1.0,6.0,88,0.00,,,0.00,meteohub,2013-01-16 11:12:00,
2013-01-16 03:17:00,33.4,30.7,30.92,South,182,2.0,9.0,90,0.00,,,0.00,meteohub,2013-01-16 11:17:00,
2013-01-16 03:22:00,33.3,30.6,30.92,SSE,165,1.0,9.0,90,0.00,,,0.00,meteohub,2013-01-16 11:22:00,
2013-01-16 03:27:00,33.1,30.4,30.92,South,170,2.0,7.0,90,0.00,,,0.00,meteohub,2013-01-16 11:27:00,
2013-01-16 03:33:00,32.9,30.4,30.92,SW,227,1.0,5.0,90,0.00,,,0.00,meteohub,2013-01-16 11:33:00,
2013-01-16 03:38:00,32.7,30.2,30.92,SSE,150,1.0,5.0,90,0.00,,,0.00,meteohub,2013-01-16 11:38:00,
2013-01-16 03:43:00,32.7,30.2,30.92,West,266,0.0,2.0,90,0.00,,,0.00,meteohub,2013-01-16 11:43:00,
2013-01-16 03:48:00,32.7,30.2,30.92,WSW,252,0.0,2.0,90,0.00,,,0.00,meteohub,2013-01-16 11:48:00,
2013-01-16 03:53:00,32.5,30.0,30.92,WSW,251,0.0,2.0,90,0.00,,,0.00,meteohub,2013-01-16 11:53:00,
2013-01-16 03:58:00,32.5,30.0,30.92,WNW,299,0.0,2.0,90,0.00,,,0.00,meteohub,2013-01-16 11:58:00,
2013-01-16 04:03:00,32.5,29.7,30.92,WNW,299,0.0,2.0,89,0.00,,,0.00,meteohub,2013-01-16 12:03:00,
2013-01-16 04:09:00,32.7,29.8,30.92,East,89,1.0,1.0,89,0.00,,,0.00,meteohub,2013-01-16 12:09:00,
2013-01-16 04:14:00,32.7,29.8,30.92,SE,132,1.0,1.0,89,0.00,,,0.00,meteohub,2013-01-16 12:14:00,
2013-01-16 04:19:00,32.7,29.8,30.92,ESE,123,0.0,3.0,89,0.00,,,0.00,meteohub,2013-01-16 12:19:00,
2013-01-16 04:24:00,32.7,29.8,30.92,ESE,122,0.0,3.0,89,0.00,,,0.00,meteohub,2013-01-16 12:24:00,
2013-01-16 04:29:00,32.7,29.8,30.91,ESE,123,0.0,3.0,89,0.00,,,0.00,meteohub,2013-01-16 12:29:00,
2013-01-16 04:35:00,32.7,29.8,30.91,WSW,237,0.0,2.0,89,0.00,,,0.00,meteohub,2013-01-16 12:35:00,
2013-01-16 04:40:00,32.5,29.7,30.91,ESE,113,0.0,1.0,89,0.00,,,0.00,meteohub,2013-01-16 12:40:00,
2013-01-16 04:45:00,32.5,29.7,30.91,SSE,161,0.0,0.0,89,0.00,,,0.00,meteohub,2013-01-16 12:45:00,
2013-01-16 04:50:00,32.5,29.7,30.91,SSE,162,0.0,2.0,89,0.00,,,0.00,meteohub,2013-01-16 12:50:00,
2013-01-16 04:55:00,32.5,29.7,30.91,SSE,162,0.0,2.0,89,0.00,,,0.00,meteohub,2013-01-16 12:55:00,
2013-01-16 05:00:00,32.5,29.7,30.91,SSE,161,0.0,1.0,89,0.00,,,0.00,meteohub,2013-01-16 13:00:00,
2013-01-16 05:05:00,32.4,29.5,30.91,SE,136,1.0,2.0,89,0.00,,,0.00,meteohub,2013-01-16 13:05:00,
2013-01-16 05:10:00,32.4,29.5,30.91,SSE,156,0.0,2.0,89,0.00,,,0.00,meteohub,2013-01-16 13:10:00,
2013-01-16 05:15:00,32.4,29.5,30.91,East,85,3.0,3.0,89,0.00,,,0.00,meteohub,2013-01-16 13:15:00,
2013-01-16 05:21:00,32.4,29.5,30.90,WSW,238,0.0,5.0,89,0.00,,,0.00,meteohub,2013-01-16 13:21:00,
2013-01-16 05:26:00,32.4,29.8,30.90,NNE,31,3.0,5.0,90,0.00,,,0.00,meteohub,2013-01-16 13:26:00,
2013-01-16 05:31:00,32.4,29.5,30.90,East,81,3.0,5.0,89,0.00,,,0.00,meteohub,2013-01-16 13:31:00,
2013-01-16 05:36:00,32.2,29.3,30.90,SE,132,2.0,5.0,89,0.00,,,0.00,meteohub,2013-01-16 13:36:00,
2013-01-16 05:41:00,32.2,29.3,30.90,SSE,157,1.0,5.0,89,0.00,,,0.00,meteohub,2013-01-16 13:41:00,
2013-01-16 05:46:00,32.2,29.3,30.90,SSW,192,2.0,5.0,89,0.00,,,0.00,meteohub,2013-01-16 13:46:00,
2013-01-16 05:51:00,32.2,29.7,30.90,SE,137,4.0,4.0,90,0.00,,,0.00,meteohub,2013-01-16 13:51:00,
2013-01-16 05:56:00,31.8,29.3,30.90,East,87,1.0,4.0,90,0.00,,,0.00,meteohub,2013-01-16 13:56:00,
2013-01-16 06:01:00,31.8,29.3,30.90,SSE,153,0.0,4.0,90,0.00,,,0.00,meteohub,2013-01-16 14:01:00,
2013-01-16 06:06:00,31.6,29.1,30.90,SSE,148,2.0,4.0,90,0.00,,,0.00,meteohub,2013-01-16 14:06:00,
2013-01-16 06:12:00,31.6,29.1,30.90,SSW,196,2.0,3.0,90,0.00,,,0.00,meteohub,2013-01-16 14:12:00,
2013-01-16 06:17:00,31.6,29.1,30.90,SE,130,0.0,4.0,90,0.00,,,0.00,meteohub,2013-01-16 14:17:00,
2013-01-16 06:22:00,31.6,29.1,30.90,East,84,1.0,4.0,90,0.00,,,0.00,meteohub,2013-01-16 14:22:00,
2013-01-16 06:27:00,31.6,29.1,30.90,East,85,0.0,5.0,90,0.00,,,0.00,meteohub,2013-01-16 14:27:00,
2013-01-16 06:32:00,31.6,29.1,30.90,South,171,1.0,5.0,90,0.00,,,0.00,meteohub,2013-01-16 14:32:00,
2013-01-16 06:37:00,31.6,29.1,30.90,SE,132,3.0,3.0,90,0.00,,,0.00,meteohub,2013-01-16 14:37:00,
2013-01-16 06:42:00,31.6,29.1,30.90,SE,132,1.0,5.0,90,0.00,,,0.00,meteohub,2013-01-16 14:42:00,
2013-01-16 06:47:00,31.6,29.1,30.90,SSE,157,0.0,5.0,90,0.00,,,0.00,meteohub,2013-01-16 14:47:00,
2013-01-16 06:52:00,31.5,28.9,30.90,SSE,157,0.0,5.0,90,0.00,,,0.00,meteohub,2013-01-16 14:52:00,
2013-01-16 06:57:00,31.5,28.9,30.90,ESE,116,3.0,3.0,90,0.00,,,0.00,meteohub,2013-01-16 14:57:00,
2013-01-16 07:02:00,31.5,28.9,30.90,SSE,148,0.0,3.0,90,0.00,,,0.00,meteohub,2013-01-16 15:02:00,
2013-01-16 07:07:00,31.5,28.9,30.90,SE,129,0.0,3.0,90,0.00,,,0.00,meteohub,2013-01-16 15:07:00,
2013-01-16 07:12:00,31.3,28.8,30.91,SSE,151,3.0,3.0,90,0.00,,,0.00,meteohub,2013-01-16 15:12:00,
2013-01-16 07:17:00,31.3,28.8,30.91,SE,144,2.0,4.0,90,0.00,,,0.00,meteohub,2013-01-16 15:17:00,
2013-01-16 07:22:00,30.9,28.4,30.91,SSE,161,1.0,5.0,90,0.00,,,0.00,meteohub,2013-01-16 15:22:00,
2013-01-16 07:27:00,30.9,28.4,30.91,SSE,161,0.0,5.0,90,0.00,,,0.00,meteohub,2013-01-16 15:27:00,
2013-01-16 07:33:00,30.9,28.4,30.91,SSE,157,1.0,5.0,90,0.00,,,0.00,meteohub,2013-01-16 15:33:00,
2013-01-16 07:38:00,30.9,28.0,30.91,ESE,110,2.0,3.0,89,0.00,,,0.00,meteohub,2013-01-16 15:38:00,
2013-01-16 07:43:00,30.9,28.0,30.92,SE,136,0.0,3.0,89,0.00,,,0.00,meteohub,2013-01-16 15:43:00,
2013-01-16 07:48:00,30.9,28.0,30.92,SE,128,2.0,3.0,89,0.00,,,0.00,meteohub,2013-01-16 15:48:00,
2013-01-16 07:53:00,30.9,28.0,30.92,SSE,167,0.0,3.0,89,0.00,,,0.00,meteohub,2013-01-16 15:53:00,
2013-01-16 07:58:00,30.9,28.0,30.92,ESE,107,0.0,3.0,89,0.00,,,0.00,meteohub,2013-01-16 15:58:00,
2013-01-16 08:03:00,30.9,28.0,30.92,ENE,71,0.0,5.0,89,0.00,,,0.00,meteohub,2013-01-16 16:03:00,
2013-01-16 08:08:00,31.1,28.2,30.92,East,87,0.0,5.0,89,0.00,,,0.00,meteohub,2013-01-16 16:08:00,
2013-01-16 08:14:00,31.3,28.4,30.92,ESE,123,0.0,5.0,89,0.00,,,0.00,meteohub,2013-01-16 16:14:00,
2013-01-16 08:19:00,31.3,28.4,30.92,SE,134,1.0,3.0,89,0.00,,,0.00,meteohub,2013-01-16 16:19:00,
2013-01-16 08:24:00,31.3,28.8,30.92,East,100,0.0,3.0,90,0.00,,,0.00,meteohub,2013-01-16 16:24:00,
2013-01-16 08:29:00,31.5,28.9,30.92,SE,146,2.0,3.0,90,0.00,,,0.00,meteohub,2013-01-16 16:29:00,
2013-01-16 08:34:00,31.6,29.1,30.92,ESE,110,0.0,3.0,90,0.00,,,0.00,meteohub,2013-01-16 16:34:00,
2013-01-16 08:39:00,31.6,29.1,30.92,SE,140,2.0,3.0,90,0.00,,,0.00,meteohub,2013-01-16 16:39:00,
2013-01-16 08:44:00,31.6,29.1,30.92,South,178,2.0,3.0,90,0.00,,,0.00,meteohub,2013-01-16 16:44:00,
2013-01-16 08:50:00,31.8,29.3,30.92,SSW,205,0.0,3.0,90,0.00,,,0.00,meteohub,2013-01-16 16:50:00,
2013-01-16 08:55:00,31.6,29.1,30.92,SW,222,0.0,4.0,90,0.00,,,0.00,meteohub,2013-01-16 16:55:00,
2013-01-16 09:00:00,31.8,29.3,30.92,SE,141,1.0,4.0,90,0.00,,,0.00,meteohub,2013-01-16 17:00:00,
2013-01-16 09:05:00,31.8,29.3,30.92,SSE,168,3.0,4.0,90,0.00,,,0.00,meteohub,2013-01-16 17:05:00,
2013-01-16 09:10:00,31.8,29.3,30.92,ESE,105,3.0,3.0,90,0.00,,,0.00,meteohub,2013-01-16 17:10:00,
2013-01-16 09:15:00,31.6,29.1,30.93,East,95,1.0,3.0,90,0.00,,,0.00,meteohub,2013-01-16 17:15:00,
2013-01-16 09:20:00,31.8,28.9,30.93,East,98,0.0,5.0,89,0.00,,,0.00,meteohub,2013-01-16 17:20:00,
2013-01-16 09:25:00,31.8,28.9,30.93,ESE,104,0.0,5.0,89,0.00,,,0.00,meteohub,2013-01-16 17:25:00,
2013-01-16 09:30:00,31.8,29.3,30.93,East,82,2.0,3.0,90,0.00,,,0.00,meteohub,2013-01-16 17:30:00,
2013-01-16 09:35:00,31.8,29.5,30.93,ESE,105,2.0,3.0,91,0.00,,,0.00,meteohub,2013-01-16 17:35:00,
2013-01-16 09:40:00,31.8,29.5,30.93,East,97,1.0,3.0,91,0.00,,,0.00,meteohub,2013-01-16 17:40:00,
2013-01-16 09:45:00,31.8,29.5,30.93,ESE,113,2.0,3.0,91,0.00,,,0.00,meteohub,2013-01-16 17:45:00,
2013-01-16 09:50:00,31.8,29.5,30.93,ESE,105,3.0,5.0,91,0.00,,,0.00,meteohub,2013-01-16 17:50:00,
2013-01-16 09:55:00,31.8,29.5,30.93,West,261,0.0,5.0,91,0.00,,,0.00,meteohub,2013-01-16 17:55:00,
2013-01-16 10:01:00,32.2,29.8,30.92,ENE,67,0.0,5.0,91,0.00,,,0.00,meteohub,2013-01-16 18:01:00,
2013-01-16 10:06:00,32.0,29.7,30.93,East,86,1.0,6.0,91,0.00,,,0.00,meteohub,2013-01-16 18:06:00,
2013-01-16 10:11:00,32.0,29.7,30.92,ENE,63,0.0,6.0,91,0.00,,,0.00,meteohub,2013-01-16 18:11:00,
2013-01-16 10:16:00,32.0,29.7,30.92,ENE,78,0.0,6.0,91,0.00,,,0.00,meteohub,2013-01-16 18:16:00,
2013-01-16 10:21:00,32.0,29.7,30.92,NE,36,2.0,4.0,91,0.00,,,0.00,meteohub,2013-01-16 18:21:00,
2013-01-16 10:26:00,32.2,29.8,30.92,East,93,0.0,4.0,91,0.00,,,0.00,meteohub,2013-01-16 18:26:00,
2013-01-16 10:31:00,32.2,29.8,30.92,ENE,62,0.0,4.0,91,0.00,,,0.00,meteohub,2013-01-16 18:31:00,
2013-01-16 10:36:00,32.2,29.8,30.92,NE,37,2.0,3.0,91,0.00,,,0.00,meteohub,2013-01-16 18:36:00,
2013-01-16 10:41:00,32.4,30.0,30.92,East,100,0.0,3.0,91,0.00,,,0.00,meteohub,2013-01-16 18:41:00,
2013-01-16 10:46:00,32.4,30.0,30.92,NNW,344,0.0,3.0,91,0.00,,,0.00,meteohub,2013-01-16 18:46:00,
2013-01-16 10:51:00,32.5,30.2,30.92,North,11,0.0,2.0,91,0.00,,,0.00,meteohub,2013-01-16 18:51:00,
2013-01-16 10:57:00,32.7,30.4,30.92,North,11,0.0,1.0,91,0.00,,,0.00,meteohub,2013-01-16 18:57:00,
2013-01-16 11:02:00,32.7,30.4,30.92,NNE,13,0.0,1.0,91,0.00,,,0.00,meteohub,2013-01-16 19:02:00,
2013-01-16 11:07:00,33.1,30.7,30.92,NNE,13,0.0,1.0,91,0.00,,,0.00,meteohub,2013-01-16 19:07:00,
2013-01-16 11:12:00,33.1,30.4,30.92,NW,304,1.0,1.0,90,0.00,,,0.00,meteohub,2013-01-16 19:12:00,
2013-01-16 11:17:00,33.1,30.4,30.92,NW,307,0.0,1.0,90,0.00,,,0.00,meteohub,2013-01-16 19:17:00,
2013-01-16 11:22:00,33.3,30.6,30.91,NW,306,0.0,1.0,90,0.00,,,0.00,meteohub,2013-01-16 19:22:00,
2013-01-16 11:27:00,33.3,30.6,30.91,NW,307,0.0,1.0,90,0.00,,,0.00,meteohub,2013-01-16 19:27:00,
2013-01-16 11:32:00,33.4,30.7,30.91,NW,315,0.0,0.0,90,0.00,,,0.00,meteohub,2013-01-16 19:32:00,
2013-01-16 11:37:00,33.6,30.9,30.91,NW,304,1.0,1.0,90,0.00,,,0.00,meteohub,2013-01-16 19:37:00,
2013-01-16 11:42:00,33.4,30.7,30.91,NW,314,2.0,2.0,90,0.00,,,0.00,meteohub,2013-01-16 19:42:00,
2013-01-16 11:47:00,33.4,30.7,30.90,WNW,296,2.0,3.0,90,0.00,,,0.00,meteohub,2013-01-16 19:47:00,
2013-01-16 11:52:00,34.0,31.3,30.90,NNW,344,2.0,3.0,90,0.00,,,0.00,meteohub,2013-01-16 19:52:00,
2013-01-16 11:57:00,34.0,31.3,30.90,NE,40,0.0,3.0,90,0.00,,,0.00,meteohub,2013-01-16 19:57:00,
2013-01-16 12:03:00,34.2,31.5,30.90,NW,306,1.0,3.0,90,0.00,,,0.00,meteohub,2013-01-16 20:03:00,
2013-01-16 12:08:00,34.2,31.5,30.90,WSW,252,1.0,4.0,90,0.00,,,0.00,meteohub,2013-01-16 20:08:00,
2013-01-16 12:13:00,34.5,31.8,30.90,NE,42,2.0,4.0,90,0.00,,,0.00,meteohub,2013-01-16 20:13:00,
2013-01-16 12:18:00,34.9,32.0,30.89,ENE,72,3.0,4.0,89,0.00,,,0.00,meteohub,2013-01-16 20:18:00,
2013-01-16 12:23:00,35.2,32.4,30.90,NE,39,3.0,7.0,89,0.00,,,0.00,meteohub,2013-01-16 20:23:00,
2013-01-16 12:28:00,35.2,32.4,30.89,ENE,65,2.0,7.0,89,0.00,,,0.00,meteohub,2013-01-16 20:28:00,
2013-01-16 12:33:00,35.2,32.4,30.89,East,96,3.0,7.0,89,0.00,,,0.00,meteohub,2013-01-16 20:33:00,
2013-01-16 12:38:00,35.4,32.5,30.89,NE,47,4.0,7.0,89,0.00,,,0.00,meteohub,2013-01-16 20:38:00,
2013-01-16 12:43:00,35.6,32.4,30.89,ENE,59,4.0,6.0,88,0.00,,,0.00,meteohub,2013-01-16 20:43:00,
2013-01-16 12:49:00,35.4,32.2,30.89,East,92,2.0,6.0,88,0.00,,,0.00,meteohub,2013-01-16 20:49:00,
2013-01-16 12:54:00,35.6,32.7,30.89,East,81,3.0,4.0,89,0.00,,,0.00,meteohub,2013-01-16 20:54:00,
2013-01-16 12:59:00,35.4,32.5,30.88,ESE,102,3.0,6.0,89,0.00,,,0.00,meteohub,2013-01-16 20:59:00,
2013-01-16 13:04:00,35.6,32.4,30.89,NE,47,2.0,6.0,88,0.00,,,0.00,meteohub,2013-01-16 21:04:00,
2013-01-16 13:09:00,35.8,32.9,30.88,ENE,78,1.0,6.0,89,0.00,,,0.00,meteohub,2013-01-16 21:09:00,
2013-01-16 13:14:00,35.8,32.5,30.88,East,84,0.0,5.0,88,0.00,,,0.00,meteohub,2013-01-16 21:14:00,
2013-01-16 13:19:00,35.8,32.5,30.88,ESE,112,1.0,4.0,88,0.00,,,0.00,meteohub,2013-01-16 21:19:00,
2013-01-16 13:24:00,35.8,32.5,30.88,East,98,2.0,5.0,88,0.00,,,0.00,meteohub,2013-01-16 21:24:00,
2013-01-16 13:29:00,36.0,32.7,30.88,East,80,1.0,5.0,88,0.00,,,0.00,meteohub,2013-01-16 21:29:00,
2013-01-16 13:35:00,35.8,32.5,30.88,ESE,103,2.0,5.0,88,0.00,,,0.00,meteohub,2013-01-16 21:35:00,
2013-01-16 13:40:00,35.4,32.2,30.88,ENE,75,2.0,6.0,88,0.00,,,0.00,meteohub,2013-01-16 21:40:00,
2013-01-16 13:45:00,35.8,32.5,30.88,ENE,71,2.0,7.0,88,0.00,,,0.00,meteohub,2013-01-16 21:45:00,
2013-01-16 13:50:00,35.4,32.5,30.88,East,83,1.0,7.0,89,0.00,,,0.00,meteohub,2013-01-16 21:50:00,
2013-01-16 13:55:00,35.4,32.5,30.88,East,80,2.0,5.0,89,0.00,,,0.00,meteohub,2013-01-16 21:55:00,
2013-01-16 14:00:00,35.4,32.5,30.88,East,81,7.0,7.0,89,0.00,,,0.00,meteohub,2013-01-16 22:00:00,
2013-01-16 14:05:00,35.2,32.4,30.88,East,90,3.0,7.0,89,0.00,,,0.00,meteohub,2013-01-16 22:05:00,
2013-01-16 14:11:00,35.2,32.4,30.88,ESE,110,2.0,7.0,89,0.00,,,0.00,meteohub,2013-01-16 22:11:00,
2013-01-16 14:16:00,35.2,32.4,30.88,East,94,1.0,8.0,89,0.00,,,0.00,meteohub,2013-01-16 22:16:00,
2013-01-16 14:21:00,35.1,32.2,30.88,East,98,3.0,8.0,89,0.00,,,0.00,meteohub,2013-01-16 22:21:00,
2013-01-16 14:26:00,35.2,32.4,30.88,ESE,103,2.0,8.0,89,0.00,,,0.00,meteohub,2013-01-16 22:26:00,
2013-01-16 14:31:00,35.1,32.2,30.88,East,80,6.0,8.0,89,0.00,,,0.00,meteohub,2013-01-16 22:31:00,
2013-01-16 14:36:00,35.1,32.2,30.88,East,80,3.0,8.0,89,0.00,,,0.00,meteohub,2013-01-16 22:36:00,
2013-01-16 14:42:00,35.1,32.2,30.89,ENE,75,3.0,7.0,89,0.00,,,0.00,meteohub,2013-01-16 22:42:00,
2013-01-16 14:47:00,35.1,32.2,30.89,NE,49,5.0,9.0,89,0.00,,,0.00,meteohub,2013-01-16 22:47:00,
2013-01-16 14:52:00,34.9,32.0,30.89,SE,142,2.0,9.0,89,0.00,,,0.00,meteohub,2013-01-16 22:52:00,
2013-01-16 14:57:00,34.9,32.0,30.89,ENE,67,2.0,9.0,89,0.00,,,0.00,meteohub,2013-01-16 22:57:00,
2013-01-16 15:02:00,34.7,31.8,30.89,ENE,75,3.0,12.0,89,0.00,,,0.00,meteohub,2013-01-16 23:02:00,
2013-01-16 15:07:00,34.7,31.8,30.89,East,84,6.0,12.0,89,0.00,,,0.00,meteohub,2013-01-16 23:07:00,
2013-01-16 15:13:00,34.5,31.6,30.89,East,94,6.0,12.0,89,0.00,,,0.00,meteohub,2013-01-16 23:13:00,
2013-01-16 15:18:00,34.5,31.6,30.89,East,101,6.0,9.0,89,0.00,,,0.00,meteohub,2013-01-16 23:18:00,
2013-01-16 15:23:00,34.3,31.5,30.89,ESE,108,5.0,10.0,89,0.00,,,0.00,meteohub,2013-01-16 23:23:00,
2013-01-16 15:28:00,34.3,31.5,30.89,East,81,3.0,10.0,89,0.00,,,0.00,meteohub,2013-01-16 23:28:00,
2013-01-16 15:33:00,34.3,31.5,30.89,East,90,6.0,13.0,89,0.00,,,0.00,meteohub,2013-01-16 23:33:00,
2013-01-16 15:38:00,34.3,31.5,30.89,ESE,105,3.0,13.0,89,0.00,,,0.00,meteohub,2013-01-16 23:38:00,
2013-01-16 15:44:00,34.3,31.5,30.89,ENE,63,1.0,13.0,89,0.00,,,0.00,meteohub,2013-01-16 23:44:00,
2013-01-16 15:49:00,34.2,31.3,30.90,ENE,73,3.0,8.0,89,0.00,,,0.00,meteohub,2013-01-16 23:49:00,
2013-01-16 15:55:00,34.2,31.3,30.89,East,82,6.0,10.0,89,0.00,,,0.00,meteohub,2013-01-16 23:55:00,
2013-01-16 16:00:00,34.2,31.3,30.89,East,88,2.0,12.0,89,0.00,,,0.00,meteohub,2013-01-17 00:00:00,
2013-01-16 16:06:00,34.0,31.1,30.89,East,80,6.0,12.0,89,0.00,,,0.00,meteohub,2013-01-17 00:06:00,
2013-01-16 16:11:00,34.0,31.1,30.90,East,86,3.0,11.0,89,0.00,,,0.00,meteohub,2013-01-17 00:11:00,
2013-01-16 16:17:00,34.0,31.1,30.90,ENE,78,3.0,11.0,89,0.00,,,0.00,meteohub,2013-01-17 00:17:00,
2013-01-16 16:22:00,33.8,30.9,30.90,NNE,24,4.0,10.0,89,0.00,,,0.00,meteohub,2013-01-17 00:22:00,
2013-01-16 16:27:00,33.6,30.7,30.90,East,85,3.0,13.0,89,0.00,,,0.00,meteohub,2013-01-17 00:27:00,
2013-01-16 16:32:00,33.6,30.7,30.90,NE,53,3.0,13.0,89,0.00,,,0.00,meteohub,2013-01-17 00:32:00,
2013-01-16 16:38:00,33.4,30.6,30.90,ENE,76,5.0,13.0,89,0.00,,,0.00,meteohub,2013-01-17 00:38:00,
2013-01-16 16:43:00,33.4,30.6,30.90,East,91,6.0,10.0,89,0.00,,,0.00,meteohub,2013-01-17 00:43:00,
2013-01-16 16:49:00,33.3,30.4,30.90,ENE,67,7.0,10.0,89,0.00,,,0.00,meteohub,2013-01-17 00:49:00,
2013-01-16 16:54:00,33.3,30.4,30.90,ESE,121,4.0,15.0,89,0.00,,,0.00,meteohub,2013-01-17 00:54:00,
2013-01-16 17:00:00,33.3,30.4,30.90,East,81,2.0,15.0,89,0.00,,,0.00,meteohub,2013-01-17 01:00:00,
2013-01-16 17:05:00,33.3,30.4,30.90,NW,312,0.0,10.0,89,0.00,,,0.00,meteohub,2013-01-17 01:05:00,
2013-01-16 17:10:00,33.1,30.2,30.90,East,94,3.0,10.0,89,0.00,,,0.00,meteohub,2013-01-17 01:10:00,
2013-01-16 17:16:00,33.1,30.2,30.90,ENE,78,2.0,10.0,89,0.00,,,0.00,meteohub,2013-01-17 01:16:00,
2013-01-16 17:22:00,33.1,30.2,30.90,ENE,67,5.0,11.0,89,0.00,,,0.00,meteohub,2013-01-17 01:22:00,
2013-01-16 17:27:00,33.1,30.2,30.90,NE,46,8.0,11.0,89,0.00,,,0.00,meteohub,2013-01-17 01:27:00,
2013-01-16 17:35:00,33.1,30.2,30.90,ENE,76,2.0,11.0,89,0.00,,,0.00,meteohub,2013-01-17 01:35:00,
2013-01-16 17:40:00,33.1,30.2,30.90,ENE,59,8.0,11.0,89,0.00,,,0.00,meteohub,2013-01-17 01:40:00,
2013-01-16 17:45:00,33.1,30.2,30.90,ENE,78,3.0,10.0,89,0.00,,,0.00,meteohub,2013-01-17 01:45:00,
2013-01-16 17:50:00,33.1,30.2,30.90,NE,38,6.0,10.0,89,0.00,,,0.00,meteohub,2013-01-17 01:50:00,
2013-01-16 17:56:00,32.9,30.0,30.90,NE,40,7.0,10.0,89,0.00,,,0.00,meteohub,2013-01-17 01:56:00,
2013-01-16 18:01:00,32.9,30.0,30.90,ENE,64,1.0,10.0,89,0.00,,,0.00,meteohub,2013-01-17 02:01:00,
2013-01-16 18:06:00,32.7,29.8,30.90,NE,42,2.0,10.0,89,0.00,,,0.00,meteohub,2013-01-17 02:06:00,
2013-01-16 18:11:00,32.7,29.8,30.90,NNE,23,4.0,10.0,89,0.00,,,0.00,meteohub,2013-01-17 02:11:00,
2013-01-16 18:16:00,32.7,29.8,30.90,ENE,76,3.0,10.0,89,0.00,,,0.00,meteohub,2013-01-17 02:16:00,
2013-01-16 18:21:00,32.7,29.8,30.90,ENE,76,5.0,10.0,89,0.00,,,0.00,meteohub,2013-01-17 02:21:00,
2013-01-16 18:26:00,32.7,29.8,30.90,ENE,69,7.0,10.0,89,0.00,,,0.00,meteohub,2013-01-17 02:26:00,
2013-01-16 18:31:00,32.7,29.8,30.90,East,86,7.0,9.0,89,0.00,,,0.00,meteohub,2013-01-17 02:31:00,
2013-01-16 18:37:00,32.5,29.7,30.90,NE,38,4.0,12.0,89,0.00,,,0.00,meteohub,2013-01-17 02:37:00,
2013-01-16 18:42:00,32.5,29.7,30.90,ENE,69,2.0,13.0,89,0.00,,,0.00,meteohub,2013-01-17 02:42:00,
2013-01-16 18:47:00,32.5,30.0,30.91,NNW,339,2.0,13.0,90,0.00,,,0.00,meteohub,2013-01-17 02:47:00,
2013-01-16 18:52:00,32.5,30.0,30.91,ENE,67,5.0,13.0,90,0.00,,,0.00,meteohub,2013-01-17 02:52:00,
2013-01-16 18:57:00,32.5,30.0,30.91,East,82,3.0,13.0,90,0.00,,,0.00,meteohub,2013-01-17 02:57:00,
2013-01-16 19:02:00,32.5,29.7,30.92,SE,140,5.0,10.0,89,0.00,,,0.00,meteohub,2013-01-17 03:02:00,
2013-01-16 19:07:00,32.4,29.5,30.92,ENE,69,3.0,10.0,89,0.00,,,0.00,meteohub,2013-01-17 03:07:00,
2013-01-16 19:13:00,32.4,29.8,30.92,East,100,3.0,10.0,90,0.00,,,0.00,meteohub,2013-01-17 03:13:00,
2013-01-16 19:18:00,32.4,29.5,30.92,ENE,76,3.0,9.0,89,0.00,,,0.00,meteohub,2013-01-17 03:18:00,
2013-01-16 19:23:00,32.2,29.3,30.92,NE,49,6.0,8.0,89,0.00,,,0.00,meteohub,2013-01-17 03:23:00,
2013-01-16 19:28:00,32.2,29.3,30.92,NE,51,7.0,11.0,89,0.00,,,0.00,meteohub,2013-01-17 03:28:00,
2013-01-16 19:33:00,32.0,29.5,30.92,East,81,6.0,11.0,90,0.00,,,0.00,meteohub,2013-01-17 03:33:00,
2013-01-16 19:38:00,31.8,29.3,30.92,ENE,61,8.0,11.0,90,0.00,,,0.00,meteohub,2013-01-17 03:38:00,
2013-01-16 19:43:00,31.8,29.3,30.92,East,82,1.0,11.0,90,0.00,,,0.00,meteohub,2013-01-17 03:43:00,
2013-01-16 19:48:00,31.8,29.3,30.92,ENE,66,5.0,11.0,90,0.00,,,0.00,meteohub,2013-01-17 03:48:00,
2013-01-16 19:53:00,31.6,29.1,30.92,East,94,3.0,11.0,90,0.00,,,0.00,meteohub,2013-01-17 03:53:00,
2013-01-16 19:58:00,31.6,29.1,30.92,NE,54,4.0,10.0,90,0.00,,,0.00,meteohub,2013-01-17 03:58:00,
2013-01-16 20:04:00,31.6,29.1,30.92,ENE,72,3.0,10.0,90,0.00,,,0.00,meteohub,2013-01-17 04:04:00,
2013-01-16 20:09:00,31.6,29.1,30.92,ENE,78,2.0,10.0,90,0.00,,,0.00,meteohub,2013-01-17 04:09:00,
2013-01-16 20:14:00,31.5,28.9,30.92,NE,42,3.0,10.0,90,0.00,,,0.00,meteohub,2013-01-17 04:14:00,
2013-01-16 20:19:00,31.5,28.9,30.92,NE,46,5.0,10.0,90,0.00,,,0.00,meteohub,2013-01-17 04:19:00,
2013-01-16 20:25:00,31.6,29.1,30.92,East,85,2.0,10.0,90,0.00,,,0.00,meteohub,2013-01-17 04:25:00,
2013-01-16 20:30:00,31.5,28.9,30.92,East,87,2.0,8.0,90,0.00,,,0.00,meteohub,2013-01-17 04:30:00,
2013-01-16 20:35:00,31.5,28.9,30.92,ENE,69,2.0,10.0,90,0.00,,,0.00,meteohub,2013-01-17 04:35:00,
2013-01-16 20:40:00,31.5,28.9,30.92,NE,39,2.0,10.0,90,0.00,,,0.00,meteohub,2013-01-17 04:40:00,
2013-01-16 20:45:00,31.5,28.9,30.92,East,85,3.0,8.0,90,0.00,,,0.00,meteohub,2013-01-17 04:45:00,
2013-01-16 20:50:00,31.5,28.9,30.92,East,84,2.0,8.0,90,0.00,,,0.00,meteohub,2013-01-17 04:50:00,
2013-01-16 20:55:00,31.5,28.9,30.92,East,85,3.0,9.0,90,0.00,,,0.00,meteohub,2013-01-17 04:55:00,
2013-01-16 21:01:00,31.3,28.8,30.92,ENE,78,3.0,9.0,90,0.00,,,0.00,meteohub,2013-01-17 05:01:00,
2013-01-16 21:02:00,31.3,28.8,30.92,ENE,72,3.0,9.0,90,0.00,,,0.00,meteohub,2013-01-17 05:02:00,
2013-01-16 21:05:00,31.3,28.8,30.92,ENE,62,5.0,10.0,90,0.00,,,0.00,meteohub,2013-01-17 05:05:00,
2013-01-16 21:10:00,31.3,28.8,30.92,NNE,22,5.0,10.0,90,0.00,,,0.00,meteohub,2013-01-17 05:10:00,
2013-01-16 21:15:00,31.3,28.8,30.92,ENE,78,5.0,10.0,90,0.00,,,0.00,meteohub,2013-01-17 05:15:00,
2013-01-16 21:21:00,31.1,28.6,30.92,East,101,1.0,9.0,90,0.00,,,0.00,meteohub,2013-01-17 05:21:00,
2013-01-16 21:26:00,31.1,28.6,30.92,ENE,73,2.0,9.0,90,0.00,,,0.00,meteohub,2013-01-17 05:26:00,
2013-01-16 21:31:00,31.1,28.6,30.92,ESE,108,1.0,9.0,90,0.00,,,0.00,meteohub,2013-01-17 05:31:00,
2013-01-16 21:36:00,30.9,28.4,30.92,ESE,105,0.0,8.0,90,0.00,,,0.00,meteohub,2013-01-17 05:36:00,
2013-01-16 21:41:00,30.9,28.4,30.92,East,86,5.0,8.0,90,0.00,,,0.00,meteohub,2013-01-17 05:41:00,
2013-01-16 21:46:00,30.9,28.4,30.92,ENE,57,4.0,8.0,90,0.00,,,0.00,meteohub,2013-01-17 05:46:00,
2013-01-16 21:51:00,30.9,28.4,30.92,NE,54,1.0,8.0,90,0.00,,,0.00,meteohub,2013-01-17 05:51:00,
2013-01-16 21:57:00,30.9,28.4,30.92,ESE,102,2.0,8.0,90,0.00,,,0.00,meteohub,2013-01-17 05:57:00,
2013-01-16 22:02:00,30.9,28.4,30.92,NNE,19,2.0,8.0,90,0.00,,,0.00,meteohub,2013-01-17 06:02:00,
2013-01-16 22:07:00,30.9,28.4,30.92,East,92,5.0,8.0,90,0.00,,,0.00,meteohub,2013-01-17 06:07:00,
2013-01-16 22:12:00,30.9,28.4,30.92,East,82,6.0,10.0,90,0.00,,,0.00,meteohub,2013-01-17 06:12:00,
2013-01-16 22:17:00,30.9,28.4,30.92,East,80,5.0,10.0,90,0.00,,,0.00,meteohub,2013-01-17 06:17:00,
2013-01-16 22:22:00,30.9,28.4,30.92,NE,56,6.0,10.0,90,0.00,,,0.00,meteohub,2013-01-17 06:22:00,
2013-01-16 22:27:00,30.9,28.4,30.92,East,88,1.0,8.0,90,0.00,,,0.00,meteohub,2013-01-17 06:27:00,
2013-01-16 22:32:00,30.9,28.4,30.92,East,88,1.0,9.0,90,0.00,,,0.00,meteohub,2013-01-17 06:32:00,
2013-01-16 22:37:00,30.9,28.4,30.92,ENE,64,2.0,9.0,90,0.00,,,0.00,meteohub,2013-01-17 06:37:00,
2013-01-16 22:43:00,30.9,28.4,30.92,NE,53,4.0,9.0,90,0.00,,,0.00,meteohub,2013-01-17 06:43:00,
2013-01-16 22:48:00,30.7,28.2,30.92,ESE,103,1.0,9.0,90,0.00,,,0.00,meteohub,2013-01-17 06:48:00,
2013-01-16 22:53:00,30.7,28.2,30.92,East,90,2.0,9.0,90,0.00,,,0.00,meteohub,2013-01-17 06:53:00,
2013-01-16 22:58:00,30.7,28.2,30.93,NE,48,2.0,9.0,90,0.00,,,0.00,meteohub,2013-01-17 06:58:00,
2013-01-16 23:03:00,30.7,28.4,30.92,East,92,2.0,8.0,91,0.00,,,0.00,meteohub,2013-01-17 07:03:00,
2013-01-16 23:08:00,30.7,28.2,30.93,ENE,62,1.0,8.0,90,0.00,,,0.00,meteohub,2013-01-17 07:08:00,
2013-01-16 23:13:00,30.6,28.0,30.93,ENE,69,1.0,8.0,90,0.00,,,0.00,meteohub,2013-01-17 07:13:00,
2013-01-16 23:19:00,30.6,28.2,30.93,ENE,73,5.0,7.0,91,0.00,,,0.00,meteohub,2013-01-17 07:19:00,
2013-01-16 23:24:00,30.6,28.2,30.93,NE,56,1.0,8.0,91,0.00,,,0.00,meteohub,2013-01-17 07:24:00,
2013-01-16 23:29:00,30.6,28.2,30.92,NE,49,5.0,8.0,91,0.00,,,0.00,meteohub,2013-01-17 07:29:00,
2013-01-16 23:34:00,30.6,28.2,30.93,ENE,76,1.0,8.0,91,0.00,,,0.00,meteohub,2013-01-17 07:34:00,
2013-01-16 23:39:00,30.6,28.0,30.93,ENE,69,2.0,7.0,90,0.00,,,0.00,meteohub,2013-01-17 07:39:00,
2013-01-16 23:44:00,30.6,28.2,30.93,East,85,5.0,8.0,91,0.00,,,0.00,meteohub,2013-01-17 07:44:00,
2013-01-16 23:49:00,30.6,28.0,30.93,East,83,3.0,8.0,90,0.00,,,0.00,meteohub,2013-01-17 07:49:00,
2013-01-16 23:54:00,30.6,28.0,30.93,ENE,69,4.0,8.0,90,0.00,,,0.00,meteohub,2013-01-17 07:54:00,